createdAt,value
2018-08-07T00:00:10.837Z,21.10
2018-08-07T00:02:39.468Z,21.10
2018-08-07T00:05:08.172Z,21.10
2018-08-07T00:07:36.784Z,21.00
2018-08-07T00:11:41.674Z,21.00
2018-08-07T00:14:10.249Z,21.00
2018-08-07T00:16:38.944Z,20.90
2018-08-07T00:19:07.631Z,20.90
2018-08-07T00:21:36.281Z,21.00
2018-08-07T00:24:04.937Z,20.90
2018-08-07T00:26:33.630Z,20.90
2018-08-07T00:29:02.260Z,20.90
2018-08-07T00:31:30.991Z,20.90
2018-08-07T00:33:59.638Z,20.90
2018-08-07T00:36:28.257Z,20.90
2018-08-07T00:38:56.901Z,20.90
2018-08-07T00:41:25.586Z,20.80
2018-08-07T00:43:54.245Z,20.80
2018-08-07T00:46:22.946Z,20.70
2018-08-07T00:48:51.628Z,20.70
2018-08-07T00:51:20.217Z,20.70
2018-08-07T00:53:48.849Z,20.60
2018-08-07T00:56:17.526Z,20.60
2018-08-07T00:58:46.225Z,20.50
2018-08-07T01:01:14.941Z,20.50
2018-08-07T01:03:43.637Z,20.50
2018-08-07T01:06:12.230Z,20.40
2018-08-07T01:08:40.885Z,20.40
2018-08-07T01:11:09.509Z,20.30
2018-08-07T01:13:38.141Z,20.30
2018-08-07T01:16:06.841Z,20.20
2018-08-07T01:18:35.536Z,20.20
2018-08-07T01:21:04.401Z,20.20
2018-08-07T01:23:33.101Z,20.10
2018-08-07T01:26:01.745Z,20.10
2018-08-07T01:28:30.409Z,20.10
2018-08-07T01:30:59.028Z,20.00
2018-08-07T01:33:27.729Z,20.00
2018-08-07T01:35:56.393Z,20.00
2018-08-07T01:38:24.977Z,20.00
2018-08-07T01:40:53.617Z,19.90
2018-08-07T01:43:22.190Z,19.90
2018-08-07T01:45:50.896Z,19.90
2018-08-07T01:48:19.505Z,19.90
2018-08-07T01:50:48.161Z,19.80
2018-08-07T01:53:16.786Z,19.80
2018-08-07T01:55:45.445Z,19.80
2018-08-07T01:58:14.053Z,19.70
2018-08-07T02:00:42.690Z,19.60
2018-08-07T02:03:11.334Z,19.50
2018-08-07T02:05:40.017Z,19.40
2018-08-07T02:08:08.667Z,19.40
2018-08-07T02:10:37.311Z,19.40
2018-08-07T02:13:06.136Z,19.40
2018-08-07T02:15:34.757Z,19.30
2018-08-07T02:18:03.679Z,19.30
2018-08-07T02:20:32.306Z,19.30
2018-08-07T02:23:00.947Z,19.30
2018-08-07T02:25:29.781Z,19.30
2018-08-07T02:27:58.465Z,19.20
2018-08-07T02:30:27.102Z,19.20
2018-08-07T02:32:55.722Z,19.30
2018-08-07T02:35:24.637Z,19.30
2018-08-07T02:37:53.273Z,19.30
2018-08-07T02:40:21.882Z,19.30
2018-08-07T02:42:50.574Z,19.30
2018-08-07T02:45:19.872Z,19.30
2018-08-07T02:47:49.093Z,19.20
2018-08-07T02:50:19.584Z,19.20
2018-08-07T02:52:48.280Z,19.20
2018-08-07T02:55:16.954Z,19.20
2018-08-07T02:57:46.022Z,19.20
2018-08-07T03:00:17.169Z,19.30
2018-08-07T03:02:46.090Z,19.30
2018-08-07T03:05:14.921Z,19.20
2018-08-07T03:07:43.866Z,19.10
2018-08-07T03:10:12.514Z,19.20
2018-08-07T03:12:41.209Z,19.20
2018-08-07T03:15:13.621Z,19.20
2018-08-07T03:17:42.910Z,19.20
2018-08-07T03:20:11.529Z,19.20
2018-08-07T03:22:40.257Z,19.20
2018-08-07T03:25:10.898Z,19.30
2018-08-07T03:27:39.551Z,19.20
2018-08-07T03:30:11.753Z,19.10
2018-08-07T03:32:40.401Z,18.90
2018-08-07T03:35:09.405Z,18.90
2018-08-07T03:37:38.992Z,19.00
2018-08-07T03:40:09.891Z,19.00
2018-08-07T03:42:38.627Z,19.00
2018-08-07T03:45:08.624Z,19.00
2018-08-07T03:47:37.342Z,19.10
2018-08-07T03:50:06.677Z,19.10
2018-08-07T03:52:35.497Z,19.10
2018-08-07T03:55:05.095Z,19.10
2018-08-07T03:57:33.689Z,19.10
2018-08-07T04:00:02.360Z,18.90
2018-08-07T04:02:30.997Z,18.80
2018-08-07T04:04:59.706Z,18.70
2018-08-07T04:07:28.302Z,18.60
2018-08-07T04:09:57.001Z,18.50
2018-08-07T04:14:53.875Z,18.60
2018-08-07T04:17:22.522Z,18.60
2018-08-07T04:19:51.177Z,18.60
2018-08-07T04:22:19.810Z,18.70
2018-08-07T04:24:48.479Z,18.70
2018-08-07T04:27:17.089Z,18.90
2018-08-07T04:29:45.716Z,19.00
2018-08-07T04:32:14.625Z,19.00
2018-08-07T04:34:43.209Z,19.10
2018-08-07T04:37:11.860Z,19.10
2018-08-07T04:39:40.477Z,19.10
2018-08-07T04:42:09.198Z,19.10
2018-08-07T04:44:37.912Z,19.10
2018-08-07T04:47:06.611Z,19.10
2018-08-07T04:49:35.188Z,19.10
2018-08-07T04:52:03.830Z,19.20
2018-08-07T04:54:32.412Z,19.30
2018-08-07T04:57:01.092Z,19.40
2018-08-07T04:59:29.680Z,19.40
2018-08-07T05:01:58.295Z,19.50
2018-08-07T05:04:26.876Z,19.60
2018-08-07T05:06:55.556Z,19.70
2018-08-07T05:09:24.161Z,19.80
2018-08-07T05:11:52.833Z,19.80
2018-08-07T05:14:21.512Z,19.90
2018-08-07T05:16:50.129Z,20.00
2018-08-07T05:19:19.024Z,20.10
2018-08-07T05:21:47.705Z,20.20
2018-08-07T05:24:16.341Z,20.20
2018-08-07T05:26:45.025Z,20.30
2018-08-07T05:29:13.684Z,20.50
2018-08-07T05:31:42.289Z,20.70
2018-08-07T05:34:10.989Z,20.80
2018-08-07T05:36:39.634Z,21.00
2018-08-07T05:39:09.928Z,21.20
2018-08-07T05:41:38.887Z,21.30
2018-08-07T05:44:07.674Z,21.50
2018-08-07T05:46:36.353Z,21.60
2018-08-07T05:49:05.093Z,21.70
2018-08-07T05:51:33.781Z,21.90
2018-08-07T05:54:02.384Z,22.00
2018-08-07T05:56:31.017Z,22.20
2018-08-07T05:58:59.693Z,22.40
2018-08-07T06:01:28.337Z,22.60
2018-08-07T06:03:56.949Z,22.70
2018-08-07T06:06:25.600Z,22.80
2018-08-07T06:08:54.362Z,23.00
2018-08-07T06:11:22.999Z,23.50
2018-08-07T06:13:51.669Z,25.80
2018-08-07T06:16:20.278Z,28.40
2018-08-07T06:18:48.944Z,30.10
2018-08-07T06:21:17.569Z,30.90
2018-08-07T06:23:46.271Z,31.90
2018-08-07T06:26:14.970Z,31.80
2018-08-07T06:28:43.654Z,32.40
2018-08-07T06:31:12.269Z,32.50
2018-08-07T06:33:40.903Z,33.50
2018-08-07T06:36:09.573Z,33.30
2018-08-07T06:38:38.258Z,34.30
2018-08-07T06:41:07.037Z,34.10
2018-08-07T06:43:35.650Z,35.40
2018-08-07T06:46:04.333Z,36.00
2018-08-07T06:48:33.165Z,37.00
2018-08-07T06:51:01.865Z,36.60
2018-08-07T06:53:30.505Z,36.30
2018-08-07T06:55:59.165Z,36.30
2018-08-07T06:58:27.764Z,35.70
2018-08-07T07:00:56.454Z,35.90
2018-08-07T07:03:25.068Z,36.30
2018-08-07T07:05:53.732Z,36.20
2018-08-07T07:08:22.335Z,35.40
2018-08-07T07:10:51.028Z,35.90
2018-08-07T07:13:19.656Z,36.20
2018-08-07T07:15:48.357Z,35.40
2018-08-07T07:18:16.957Z,35.60
2018-08-07T07:20:45.658Z,35.80
2018-08-07T07:23:14.342Z,35.80
2018-08-07T07:25:42.985Z,35.80
2018-08-07T07:28:11.631Z,36.70
2018-08-07T07:30:40.269Z,37.60
2018-08-07T07:33:08.869Z,36.70
2018-08-07T07:35:37.522Z,36.30
2018-08-07T07:38:06.169Z,36.20
2018-08-07T07:40:34.838Z,36.70
2018-08-07T07:43:03.522Z,37.30
2018-08-07T07:45:32.169Z,37.50
2018-08-07T07:48:00.842Z,37.00
2018-08-07T07:50:29.533Z,37.50
2018-08-07T07:52:58.232Z,37.80
2018-08-07T07:55:26.863Z,38.60
2018-08-07T07:57:55.574Z,38.50
2018-08-07T08:00:26.255Z,38.90
2018-08-07T08:02:55.017Z,39.20
2018-08-07T08:05:24.839Z,39.10
2018-08-07T08:07:53.877Z,39.40
2018-08-07T08:10:22.456Z,39.90
2018-08-07T08:12:51.070Z,39.60
2018-08-07T08:15:19.720Z,38.90
2018-08-07T08:17:49.150Z,39.50
2018-08-07T08:20:20.986Z,39.70
2018-08-07T08:22:50.517Z,40.10
2018-08-07T08:25:19.180Z,39.70
2018-08-07T08:27:47.862Z,40.70
2018-08-07T08:30:17.024Z,40.90
2018-08-07T08:32:46.244Z,40.10
2018-08-07T08:35:16.139Z,39.60
2018-08-07T08:37:45.302Z,40.20
2018-08-07T08:40:15.525Z,40.90
2018-08-07T08:42:44.206Z,41.40
2018-08-07T08:45:16.001Z,41.50
2018-08-07T08:47:45.409Z,41.30
2018-08-07T08:50:15.681Z,41.10
2018-08-07T08:52:44.516Z,40.90
2018-08-07T08:55:13.311Z,40.90
2018-08-07T08:57:43.155Z,41.10
2018-08-07T09:00:29.088Z,41.30
2018-08-07T09:02:59.290Z,41.70
2018-08-07T09:05:28.165Z,41.80
2018-08-07T09:07:56.825Z,42.70
2018-08-07T09:10:28.102Z,42.60
2018-08-07T09:12:57.255Z,42.40
2018-08-07T09:15:25.954Z,42.00
2018-08-07T09:17:54.661Z,42.20
2018-08-07T09:20:26.044Z,42.70
2018-08-07T09:22:55.027Z,42.40
2018-08-07T09:25:24.828Z,42.60
2018-08-07T09:27:53.714Z,43.10
2018-08-07T09:30:23.722Z,43.00
2018-08-07T09:32:53.148Z,42.90
2018-08-07T09:35:22.813Z,42.70
2018-08-07T09:37:51.898Z,43.00
2018-08-07T09:40:21.433Z,42.90
2018-08-07T09:42:51.521Z,42.40
2018-08-07T09:45:26.174Z,42.60
2018-08-07T09:47:54.823Z,43.50
2018-08-07T09:50:23.532Z,43.40
2018-08-07T09:52:52.201Z,43.20
2018-08-07T09:55:20.845Z,42.80
2018-08-07T09:57:49.492Z,43.00
2018-08-07T10:00:25.255Z,43.80
2018-08-07T10:02:56.457Z,42.90
2018-08-07T10:05:26.663Z,43.30
2018-08-07T10:07:55.397Z,43.60
2018-08-07T10:10:24.089Z,43.60
2018-08-07T10:12:52.873Z,43.50
2018-08-07T10:15:21.575Z,43.90
2018-08-07T10:17:50.274Z,44.00
2018-08-07T10:20:18.898Z,43.30
2018-08-07T10:22:47.568Z,42.70
2018-08-07T10:25:18.166Z,42.30
2018-08-07T10:27:48.301Z,42.40
2018-08-07T10:30:19.642Z,42.80
2018-08-07T10:32:48.882Z,42.70
2018-08-07T10:35:17.593Z,43.20
2018-08-07T10:37:46.788Z,43.20
2018-08-07T10:40:17.688Z,43.50
2018-08-07T10:42:46.417Z,43.50
2018-08-07T10:45:16.697Z,43.70
2018-08-07T10:47:45.434Z,43.80
2018-08-07T10:50:16.500Z,43.60
2018-08-07T10:52:45.285Z,43.50
2018-08-07T10:55:13.921Z,43.30
2018-08-07T10:57:44.533Z,43.10
2018-08-07T11:00:15.427Z,43.00
2018-08-07T11:02:45.083Z,41.40
2018-08-07T11:05:13.765Z,40.80
2018-08-07T11:07:42.789Z,39.90
2018-08-07T11:10:12.468Z,39.70
2018-08-07T11:12:41.420Z,39.70
2018-08-07T11:15:19.266Z,39.60
2018-08-07T11:17:48.879Z,39.30
2018-08-07T11:20:17.658Z,39.30
2018-08-07T11:22:47.912Z,39.10
2018-08-07T11:25:17.981Z,38.80
2018-08-07T11:27:46.569Z,38.70
2018-08-07T11:30:18.441Z,38.60
2018-08-07T11:32:47.475Z,38.50
2018-08-07T11:35:16.508Z,38.70
2018-08-07T11:37:47.509Z,38.70
2018-08-07T11:40:18.921Z,38.60
2018-08-07T11:42:48.394Z,38.60
2018-08-07T11:45:18.505Z,38.70
2018-08-07T11:47:47.322Z,38.70
2018-08-07T11:50:17.661Z,38.60
2018-08-07T11:52:47.169Z,38.40
2018-08-07T11:55:17.101Z,38.40
2018-08-07T11:57:46.609Z,38.40
2018-08-07T12:00:23.457Z,38.40
2018-08-07T12:02:52.213Z,38.40
2018-08-07T12:05:20.844Z,38.40
2018-08-07T12:07:49.539Z,38.60
2018-08-07T12:10:19.189Z,38.60
2018-08-07T12:12:47.956Z,38.60
2018-08-07T12:15:19.039Z,38.50
2018-08-07T12:20:16.097Z,38.40
2018-08-07T12:22:44.785Z,38.40
2018-08-07T12:25:14.667Z,38.40
2018-08-07T12:27:43.356Z,38.50
2018-08-07T12:30:20.466Z,38.70
2018-08-07T12:32:49.186Z,38.80
2018-08-07T12:35:17.881Z,39.00
2018-08-07T12:37:46.620Z,38.90
2018-08-07T12:40:18.582Z,38.90
2018-08-07T12:42:47.722Z,38.70
2018-08-07T12:45:16.427Z,38.40
2018-08-07T12:47:45.601Z,38.40
2018-08-07T12:50:15.329Z,38.40
2018-08-07T12:52:44.040Z,38.30
2018-08-07T12:55:19.484Z,38.40
2018-08-07T12:57:48.556Z,38.50
2018-08-07T13:00:19.737Z,38.50
2018-08-07T13:02:48.447Z,38.40
2018-08-07T13:05:17.204Z,38.40
2018-08-07T13:07:45.883Z,38.20
2018-08-07T13:10:16.176Z,38.20
2018-08-07T13:12:45.678Z,38.20
2018-08-07T13:15:15.625Z,38.10
2018-08-07T13:17:44.801Z,38.00
2018-08-07T13:20:13.568Z,37.90
2018-08-07T13:22:43.314Z,38.00
2018-08-07T13:25:13.868Z,38.10
2018-08-07T13:27:42.569Z,38.30
2018-08-07T13:30:19.070Z,38.20
2018-08-07T13:32:48.026Z,38.20
2018-08-07T13:35:17.117Z,38.00
2018-08-07T13:37:47.429Z,37.70
2018-08-07T13:40:18.585Z,37.70
2018-08-07T13:42:47.209Z,37.80
2018-08-07T13:45:17.621Z,37.80
2018-08-07T13:47:46.322Z,37.90
2018-08-07T13:50:18.246Z,38.00
2018-08-07T13:52:47.485Z,37.90
2018-08-07T13:55:17.339Z,37.80
2018-08-07T13:57:46.541Z,37.70
2018-08-07T14:00:21.052Z,37.80
2018-08-07T14:02:50.289Z,37.80
2018-08-07T14:05:19.782Z,37.80
2018-08-07T14:07:49.449Z,37.90
2018-08-07T14:10:18.824Z,37.90
2018-08-07T14:12:48.357Z,37.80
2018-08-07T14:15:17.769Z,37.80
2018-08-07T14:17:46.792Z,37.80
2018-08-07T14:20:16.419Z,37.80
2018-08-07T14:22:45.396Z,37.80
2018-08-07T14:25:19.101Z,37.70
2018-08-07T14:27:47.745Z,37.90
2018-08-07T14:30:18.501Z,37.90
2018-08-07T14:32:47.459Z,38.00
2018-08-07T14:35:16.091Z,38.10
2018-08-07T14:37:45.708Z,38.30
2018-08-07T14:40:16.593Z,38.20
2018-08-07T14:42:46.603Z,38.10
2018-08-07T14:45:16.939Z,38.00
2018-08-07T14:47:45.686Z,37.90
2018-08-07T14:50:21.475Z,38.00
2018-08-07T14:52:50.274Z,37.90
2018-08-07T14:55:19.038Z,38.10
2018-08-07T14:57:47.769Z,38.20
2018-08-07T15:00:19.860Z,38.20
2018-08-07T15:02:48.992Z,38.20
2018-08-07T15:05:17.632Z,38.00
2018-08-07T15:07:46.707Z,37.90
2018-08-07T15:10:17.723Z,37.90
2018-08-07T15:12:46.473Z,38.00
2018-08-07T15:15:19.971Z,38.20
2018-08-07T15:17:48.701Z,38.20
2018-08-07T15:20:19.951Z,38.20
2018-08-07T15:22:49.919Z,38.00
2018-08-07T15:27:47.854Z,38.10
2018-08-07T15:30:18.006Z,38.00
2018-08-07T15:32:47.586Z,38.20
2018-08-07T15:35:17.575Z,38.30
2018-08-07T15:37:46.685Z,38.20
2018-08-07T15:40:15.881Z,38.20
2018-08-07T15:42:45.182Z,38.30
2018-08-07T15:45:15.869Z,38.10
2018-08-07T15:47:44.572Z,38.20
2018-08-07T15:50:15.298Z,38.20
2018-08-07T15:52:45.278Z,38.20
2018-08-07T15:55:16.997Z,38.20
2018-08-07T15:57:45.678Z,38.10
2018-08-07T16:00:25.328Z,38.10
2018-08-07T16:02:54.418Z,38.10
2018-08-07T16:05:23.121Z,38.00
2018-08-07T16:07:52.716Z,38.00
2018-08-07T16:10:21.873Z,38.10
2018-08-07T16:12:51.545Z,38.10
2018-08-07T16:15:20.195Z,38.20
2018-08-07T16:17:49.673Z,38.20
2018-08-07T16:20:18.403Z,38.30
2018-08-07T16:22:47.146Z,38.20
2018-08-07T16:25:17.001Z,38.20
2018-08-07T16:27:46.765Z,38.20
2018-08-07T16:30:17.009Z,38.20
2018-08-07T16:32:45.654Z,38.20
2018-08-07T16:35:14.994Z,38.20
2018-08-07T16:37:44.018Z,38.20
2018-08-07T16:40:16.414Z,38.30
2018-08-07T16:42:45.462Z,38.10
2018-08-07T16:45:16.431Z,38.10
2018-08-07T16:47:45.130Z,38.10
2018-08-07T16:50:17.422Z,38.10
2018-08-07T16:52:46.152Z,38.20
2018-08-07T16:55:14.810Z,38.30
2018-08-07T16:57:43.539Z,38.00
2018-08-07T17:00:12.962Z,38.00
2018-08-07T17:02:41.626Z,37.90
2018-08-07T17:05:12.810Z,37.70
2018-08-07T17:07:41.767Z,37.40
2018-08-07T17:10:14.930Z,37.30
2018-08-07T17:12:43.600Z,37.00
2018-08-07T17:15:12.453Z,36.80
2018-08-07T17:17:42.012Z,36.70
2018-08-07T17:20:14.381Z,36.60
2018-08-07T17:22:43.537Z,36.40
2018-08-07T17:25:14.070Z,36.40
2018-08-07T17:27:45.749Z,36.30
2018-08-07T17:30:19.049Z,36.30
2018-08-07T17:32:47.865Z,36.10
2018-08-07T17:35:18.478Z,36.10
2018-08-07T17:37:47.846Z,36.00
2018-08-07T17:40:18.166Z,36.00
2018-08-07T17:42:46.832Z,36.00
2018-08-07T17:45:15.557Z,36.00
2018-08-07T17:47:44.212Z,36.00
2018-08-07T17:50:16.913Z,35.90
2018-08-07T17:52:45.665Z,35.90
2018-08-07T17:55:14.362Z,35.80
2018-08-07T17:57:43.099Z,35.70
2018-08-07T18:00:16.324Z,35.60
2018-08-07T18:02:45.342Z,35.40
2018-08-07T18:05:14.077Z,35.20
2018-08-07T18:07:44.681Z,35.10
2018-08-07T18:10:13.989Z,34.80
2018-08-07T18:12:42.692Z,34.60
2018-08-07T18:15:13.397Z,34.40
2018-08-07T18:17:42.961Z,34.20
2018-08-07T18:20:14.485Z,33.90
2018-08-07T18:22:43.227Z,33.70
2018-08-07T18:25:11.914Z,33.60
2018-08-07T18:27:40.770Z,33.40
2018-08-07T18:30:14.022Z,33.20
2018-08-07T18:32:42.995Z,33.10
2018-08-07T18:35:17.688Z,32.90
2018-08-07T18:37:46.422Z,32.70
2018-08-07T18:40:15.113Z,32.50
2018-08-07T18:42:43.849Z,32.30
2018-08-07T18:45:13.528Z,32.10
2018-08-07T18:47:42.793Z,31.90
2018-08-07T18:50:13.203Z,31.70
2018-08-07T18:52:41.994Z,31.50
2018-08-07T18:55:12.266Z,31.40
2018-08-07T18:57:41.453Z,31.20
2018-08-07T19:00:12.745Z,31.00
2018-08-07T19:02:42.158Z,30.90
2018-08-07T19:05:13.281Z,30.70
2018-08-07T19:07:41.965Z,30.60
2018-08-07T19:10:11.449Z,30.40
2018-08-07T19:12:40.090Z,30.30
2018-08-07T19:15:10.269Z,30.20
2018-08-07T19:17:38.994Z,30.10
2018-08-07T19:20:08.604Z,29.90
2018-08-07T19:22:37.293Z,29.90
2018-08-07T19:25:07.360Z,29.80
2018-08-07T19:27:36.041Z,29.70
2018-08-07T19:30:07.302Z,29.50
2018-08-07T19:32:35.978Z,29.40
2018-08-07T19:35:05.341Z,29.30
2018-08-07T19:37:34.029Z,29.10
2018-08-07T19:40:03.166Z,29.00
2018-08-07T19:42:31.849Z,29.00
2018-08-07T19:45:00.796Z,28.90
2018-08-07T19:47:29.482Z,28.80
2018-08-07T19:49:58.343Z,28.60
2018-08-07T19:52:27.552Z,28.50
2018-08-07T19:54:56.257Z,28.50
2018-08-07T19:57:25.063Z,28.40
2018-08-07T19:59:53.987Z,28.30
2018-08-07T20:02:22.666Z,28.30
2018-08-07T20:04:51.626Z,28.20
2018-08-07T20:07:20.264Z,28.20
2018-08-07T20:09:49.022Z,28.10
2018-08-07T20:12:17.746Z,28.10
2018-08-07T20:14:46.365Z,28.00
2018-08-07T20:17:15.068Z,27.90
2018-08-07T20:19:43.657Z,27.80
2018-08-07T20:24:41.234Z,27.60
2018-08-07T20:27:09.930Z,27.50
2018-08-07T20:29:38.581Z,27.40
2018-08-07T20:32:08.017Z,27.40
2018-08-07T20:34:36.666Z,27.30
2018-08-07T20:37:05.438Z,27.30
2018-08-07T20:39:40.465Z,27.30
2018-08-07T20:42:09.202Z,27.20
2018-08-07T20:44:37.775Z,27.20
2018-08-07T20:47:06.477Z,27.20
2018-08-07T20:49:35.122Z,27.20
2018-08-07T20:52:03.846Z,27.20
2018-08-07T20:54:32.453Z,27.10
2018-08-07T20:57:01.132Z,27.00
2018-08-07T20:59:29.766Z,26.90
2018-08-07T21:01:58.813Z,26.90
2018-08-07T21:04:27.421Z,26.80
2018-08-07T21:06:56.038Z,26.70
2018-08-07T21:09:24.705Z,26.70
2018-08-07T21:11:53.344Z,26.60
2018-08-07T21:14:22.000Z,26.60
2018-08-07T21:19:18.901Z,26.50
2018-08-07T21:21:47.521Z,26.50
2018-08-07T21:24:16.173Z,26.50
2018-08-07T21:26:44.819Z,26.40
2018-08-07T21:29:13.429Z,26.40
2018-08-07T21:31:42.046Z,26.40
2018-08-07T21:34:10.692Z,26.60
2018-08-07T21:36:39.274Z,26.80
2018-08-07T21:39:09.310Z,27.00
2018-08-07T21:41:37.993Z,27.00
2018-08-07T21:44:06.817Z,27.00
2018-08-07T21:46:35.525Z,26.90
2018-08-07T21:49:04.261Z,26.70
2018-08-07T21:51:32.872Z,26.50
2018-08-07T21:54:01.721Z,26.40
2018-08-07T21:56:30.333Z,26.30
2018-08-07T21:58:59.018Z,26.30
2018-08-07T22:01:27.681Z,26.20
2018-08-07T22:03:56.295Z,26.20
2018-08-07T22:06:25.039Z,26.20
2018-08-07T22:08:53.615Z,26.10
2018-08-07T22:11:22.311Z,26.10
2018-08-07T22:13:50.935Z,26.10
2018-08-07T22:16:19.552Z,26.10
2018-08-07T22:18:48.162Z,26.10
2018-08-07T22:21:16.844Z,26.10
2018-08-07T22:23:45.485Z,26.20
2018-08-07T22:26:14.303Z,26.30
2018-08-07T22:28:42.969Z,26.40
2018-08-07T22:31:11.609Z,26.40
2018-08-07T22:33:40.212Z,26.40
2018-08-07T22:36:08.847Z,26.30
2018-08-07T22:38:37.452Z,26.20
2018-08-07T22:41:06.153Z,26.00
2018-08-07T22:43:34.852Z,25.90
2018-08-07T22:46:03.497Z,25.80
2018-08-07T22:48:32.468Z,25.80
2018-08-07T22:51:01.712Z,25.70
2018-08-07T22:53:30.333Z,25.90
2018-08-07T22:55:58.977Z,25.70
2018-08-07T22:58:27.645Z,25.70
2018-08-07T23:00:56.292Z,25.70
2018-08-07T23:03:25.205Z,25.70
2018-08-07T23:05:53.870Z,25.60
2018-08-07T23:08:23.871Z,25.60
2018-08-07T23:10:52.476Z,25.70
2018-08-07T23:13:21.072Z,26.00
2018-08-07T23:15:49.768Z,26.00
2018-08-07T23:18:18.371Z,26.00
2018-08-07T23:20:46.993Z,26.00
2018-08-07T23:23:15.608Z,25.90
2018-08-07T23:25:44.265Z,26.00
2018-08-07T23:28:12.845Z,26.10
2018-08-07T23:30:41.486Z,26.10
2018-08-07T23:33:10.157Z,26.20
2018-08-07T23:35:38.910Z,26.20
2018-08-07T23:38:07.817Z,26.10
2018-08-07T23:40:36.406Z,26.10
2018-08-07T23:43:05.133Z,26.20
2018-08-07T23:45:33.926Z,26.20
2018-08-07T23:48:02.477Z,26.20
2018-08-07T23:50:31.058Z,26.10
2018-08-07T23:52:59.718Z,26.10
2018-08-07T23:55:28.357Z,26.20
2018-08-07T23:57:56.991Z,26.30
